createdAt,value
2019-01-25T00:00:42.282Z,72.70
2019-01-25T00:01:42.170Z,75.60
2019-01-25T00:03:46.191Z,74.20
2019-01-25T00:04:46.080Z,76.80
2019-01-25T00:06:51.141Z,75.90
2019-01-25T00:07:51.022Z,75.80
2019-01-25T00:09:58.723Z,77.50
2019-01-25T00:10:54.941Z,77.00
2019-01-25T00:12:59.060Z,78.80
2019-01-25T00:13:58.950Z,77.50
2019-01-25T00:16:03.013Z,73.50
2019-01-25T00:17:03.061Z,71.80
2019-01-25T00:19:07.003Z,70.10
2019-01-25T00:20:07.034Z,68.60
2019-01-25T00:22:11.002Z,65.80
2019-01-25T00:23:10.892Z,68.00
2019-01-25T00:25:15.932Z,65.50
2019-01-25T00:26:15.821Z,65.30
2019-01-25T00:28:19.950Z,66.40
2019-01-25T00:29:19.854Z,64.40
2019-01-25T00:31:12.740Z,62.10
2019-01-25T00:32:12.701Z,65.90
2019-01-25T00:34:16.823Z,63.20
2019-01-25T00:35:16.702Z,66.30
2019-01-25T00:37:20.760Z,65.00
2019-01-25T00:38:20.807Z,65.50
2019-01-25T00:40:24.962Z,65.80
2019-01-25T00:41:24.746Z,66.20
2019-01-25T00:43:28.793Z,64.00
2019-01-25T00:44:28.832Z,67.30
2019-01-25T00:46:32.882Z,68.40
2019-01-25T00:47:32.762Z,64.80
2019-01-25T00:49:36.892Z,67.20
2019-01-25T00:50:36.779Z,66.10
2019-01-25T00:52:41.023Z,65.40
2019-01-25T00:53:40.881Z,68.90
2019-01-25T00:55:44.934Z,71.50
2019-01-25T00:56:44.812Z,69.20
2019-01-25T00:58:50.062Z,71.50
2019-01-25T00:59:49.851Z,72.00
2019-01-25T01:01:43.020Z,72.20
2019-01-25T01:02:42.811Z,75.80
2019-01-25T01:04:46.850Z,74.20
2019-01-25T01:05:46.822Z,77.00
2019-01-25T01:07:51.970Z,73.40
2019-01-25T01:08:50.843Z,75.00
2019-01-25T01:10:56.080Z,75.80
2019-01-25T01:11:55.881Z,76.30
2019-01-25T01:13:59.930Z,79.40
2019-01-25T01:14:59.971Z,76.70
2019-01-25T01:17:03.941Z,76.50
2019-01-25T01:18:04.092Z,78.40
2019-01-25T01:20:08.155Z,80.40
2019-01-25T01:21:07.912Z,74.70
2019-01-25T01:23:11.981Z,73.90
2019-01-25T01:24:11.932Z,77.00
2019-01-25T01:26:16.169Z,75.90
2019-01-25T01:27:16.133Z,77.60
2019-01-25T01:29:21.202Z,77.90
2019-01-25T01:30:20.982Z,73.90
2019-01-25T01:32:25.210Z,77.50
2019-01-25T01:33:25.003Z,76.60
2019-01-25T01:35:29.060Z,78.90
2019-01-25T01:36:29.012Z,77.60
2019-01-25T01:38:33.061Z,74.50
2019-01-25T01:39:33.037Z,78.50
2019-01-25T01:41:26.202Z,75.70
2019-01-25T01:42:25.993Z,77.60
2019-01-25T01:44:30.211Z,79.10
2019-01-25T01:45:30.002Z,78.80
2019-01-25T01:47:34.051Z,77.70
2019-01-25T01:48:34.211Z,76.90
2019-01-25T01:50:38.249Z,77.70
2019-01-25T01:51:38.042Z,78.50
2019-01-25T01:53:42.079Z,79.40
2019-01-25T01:54:42.231Z,79.30
2019-01-25T01:56:46.280Z,80.30
2019-01-25T01:57:46.061Z,77.80
2019-01-25T01:59:50.141Z,77.50
2019-01-25T02:00:50.265Z,78.50
2019-01-25T02:02:54.208Z,77.40
2019-01-25T02:03:54.087Z,78.50
2019-01-25T02:05:58.150Z,78.80
2019-01-25T02:06:58.103Z,75.90
2019-01-25T02:09:02.160Z,81.40
2019-01-25T02:10:02.201Z,79.30
2019-01-25T02:12:06.182Z,81.70
2019-01-25T02:13:06.210Z,78.40
2019-01-25T02:15:10.161Z,76.10
2019-01-25T02:16:10.054Z,80.90
2019-01-25T02:18:14.022Z,78.30
2019-01-25T02:19:14.042Z,78.90
2019-01-25T02:21:06.919Z,78.60
2019-01-25T02:22:06.821Z,78.80
2019-01-25T02:24:10.842Z,78.50
2019-01-25T02:25:10.731Z,78.40
2019-01-25T02:27:14.692Z,79.40
2019-01-25T02:28:14.721Z,77.00
2019-01-25T02:30:18.687Z,78.40
2019-01-25T02:31:18.550Z,80.50
2019-01-25T02:33:22.571Z,80.20
2019-01-25T02:34:22.540Z,77.50
2019-01-25T02:36:26.590Z,79.00
2019-01-25T02:37:26.486Z,77.20
2019-01-25T02:39:30.603Z,79.20
2019-01-25T02:40:38.726Z,77.00
2019-01-25T02:42:35.032Z,78.20
2019-01-25T02:43:34.923Z,79.00
2019-01-25T02:45:27.809Z,76.80
2019-01-25T02:46:27.770Z,81.30
2019-01-25T02:48:31.721Z,78.80
2019-01-25T02:49:31.673Z,72.50
2019-01-25T02:51:24.630Z,71.50
2019-01-25T02:52:24.523Z,73.30
2019-01-25T02:54:28.552Z,72.70
2019-01-25T02:55:28.431Z,68.10
2019-01-25T02:57:32.451Z,70.90
2019-01-25T02:58:32.343Z,67.70
2019-01-25T03:00:36.363Z,65.70
2019-01-25T03:01:36.253Z,69.30
2019-01-25T03:03:40.282Z,67.20
2019-01-25T03:04:40.161Z,65.50
2019-01-25T03:06:44.185Z,65.90
2019-01-25T03:07:44.071Z,66.90
2019-01-25T03:09:48.090Z,66.80
2019-01-25T03:10:47.983Z,67.30
2019-01-25T03:12:52.021Z,65.10
2019-01-25T03:13:51.893Z,64.60
2019-01-25T03:15:55.852Z,67.40
2019-01-25T03:16:55.882Z,64.80
2019-01-25T03:18:59.771Z,64.40
2019-01-25T03:19:59.711Z,66.10
2019-01-25T03:22:03.731Z,63.80
2019-01-25T03:23:03.620Z,65.30
2019-01-25T03:25:07.654Z,65.20
2019-01-25T03:26:07.530Z,64.50
2019-01-25T03:28:11.565Z,63.70
2019-01-25T03:29:11.440Z,64.40
2019-01-25T03:31:04.423Z,64.70
2019-01-25T03:32:04.303Z,63.40
2019-01-25T03:34:08.311Z,62.50
2019-01-25T03:35:08.200Z,66.30
2019-01-25T03:37:12.221Z,65.10
2019-01-25T03:38:12.111Z,64.70
2019-01-25T03:40:16.131Z,64.50
2019-01-25T03:41:16.099Z,65.10
2019-01-25T03:43:20.969Z,62.70
2019-01-25T03:44:20.871Z,63.40
2019-01-25T03:46:25.791Z,63.70
2019-01-25T03:47:25.689Z,64.80
2019-01-25T03:49:30.542Z,65.10
2019-01-25T03:50:30.420Z,63.20
2019-01-25T03:52:35.305Z,64.30
2019-01-25T03:53:35.319Z,65.20
2019-01-25T03:55:39.260Z,66.10
2019-01-25T03:56:39.160Z,62.00
2019-01-25T03:58:43.172Z,62.60
2019-01-25T03:59:43.070Z,64.80
2019-01-25T04:01:36.030Z,64.20
2019-01-25T04:02:35.921Z,63.60
2019-01-25T04:04:40.452Z,61.90
2019-01-25T04:05:40.352Z,64.10
2019-01-25T04:07:44.402Z,64.90
2019-01-25T04:08:44.261Z,62.30
2019-01-25T04:10:48.268Z,63.70
2019-01-25T04:11:48.164Z,64.30
2019-01-25T04:13:52.180Z,65.20
2019-01-25T04:14:52.152Z,61.90
2019-01-25T04:16:56.090Z,63.20
2019-01-25T04:17:55.979Z,66.10
2019-01-25T04:19:59.999Z,64.60
2019-01-25T04:20:59.892Z,63.10
2019-01-25T04:23:03.850Z,63.70
2019-01-25T04:24:03.878Z,65.40
2019-01-25T04:26:07.762Z,63.40
2019-01-25T04:27:07.710Z,63.90
2019-01-25T04:29:11.732Z,65.20
2019-01-25T04:30:11.638Z,63.30
2019-01-25T04:32:15.639Z,66.00
2019-01-25T04:33:15.545Z,65.50
2019-01-25T04:35:19.549Z,67.40
2019-01-25T04:36:19.439Z,70.20
2019-01-25T04:38:23.468Z,71.90
2019-01-25T04:39:23.350Z,71.20
2019-01-25T04:41:16.311Z,71.70
2019-01-25T04:42:16.201Z,70.70
2019-01-25T04:44:20.219Z,70.80
2019-01-25T04:45:20.111Z,70.40
2019-01-25T04:47:24.141Z,73.00
2019-01-25T04:48:24.101Z,72.80
2019-01-25T04:50:28.050Z,74.10
2019-01-25T04:51:27.938Z,72.20
2019-01-25T04:53:31.948Z,70.50
2019-01-25T04:54:31.840Z,70.60
2019-01-25T04:56:35.858Z,64.60
2019-01-25T04:57:35.759Z,66.00
2019-01-25T04:59:39.719Z,65.60
2019-01-25T05:00:39.659Z,63.50
2019-01-25T05:02:43.685Z,62.00
2019-01-25T05:03:43.573Z,63.60
2019-01-25T05:05:47.591Z,64.50
2019-01-25T05:06:47.481Z,63.30
2019-01-25T05:08:51.503Z,65.20
2019-01-25T05:09:51.390Z,64.70
2019-01-25T05:11:44.352Z,63.70
2019-01-25T05:12:44.255Z,65.20
2019-01-25T05:14:48.261Z,65.40
2019-01-25T05:15:48.152Z,63.70
2019-01-25T05:17:52.170Z,63.90
2019-01-25T05:18:52.070Z,66.80
2019-01-25T05:20:56.080Z,64.60
2019-01-25T05:21:55.982Z,63.00
2019-01-25T05:23:59.993Z,65.10
2019-01-25T05:24:59.882Z,65.60
2019-01-25T05:27:03.900Z,65.50
2019-01-25T05:28:03.802Z,64.90
2019-01-25T05:30:07.744Z,63.40
2019-01-25T05:31:07.783Z,65.20
2019-01-25T05:33:11.659Z,66.90
2019-01-25T05:34:11.690Z,63.20
2019-01-25T05:36:15.649Z,64.20
2019-01-25T05:37:15.522Z,65.90
2019-01-25T05:39:20.570Z,65.70
2019-01-25T05:40:19.433Z,64.10
2019-01-25T05:42:23.448Z,64.90
2019-01-25T05:43:23.346Z,63.60
2019-01-25T05:45:27.366Z,64.60
2019-01-25T05:46:27.251Z,67.20
2019-01-25T05:48:31.273Z,67.30
2019-01-25T05:49:31.161Z,69.60
2019-01-25T05:51:24.125Z,70.40
2019-01-25T05:52:24.020Z,69.70
2019-01-25T05:53:23.990Z,71.20
2019-01-25T05:54:23.951Z,70.30
2019-01-25T05:55:23.920Z,72.10
2019-01-25T05:56:23.885Z,69.00
2019-01-25T05:57:23.921Z,68.40
2019-01-25T05:58:23.872Z,69.20
2019-01-25T05:59:23.831Z,71.40
2019-01-25T06:00:23.751Z,71.10
2019-01-25T06:01:23.722Z,69.90
2019-01-25T06:02:24.771Z,73.80
2019-01-25T06:03:23.657Z,69.10
2019-01-25T06:04:23.650Z,70.10
2019-01-25T06:05:23.579Z,72.70
2019-01-25T06:06:23.550Z,72.60
2019-01-25T06:07:23.519Z,72.80
2019-01-25T06:08:23.572Z,70.90
2019-01-25T06:09:23.449Z,72.50
2019-01-25T06:10:23.490Z,71.30
2019-01-25T06:11:23.391Z,69.60
2019-01-25T06:12:23.361Z,67.60
2019-01-25T06:13:23.401Z,69.00
2019-01-25T06:14:23.292Z,68.60
2019-01-25T06:15:23.313Z,67.80
2019-01-25T06:16:23.220Z,68.70
2019-01-25T06:17:23.189Z,68.60
2019-01-25T06:18:23.162Z,70.90
2019-01-25T06:19:23.257Z,69.60
2019-01-25T06:20:23.095Z,68.40
2019-01-25T06:21:23.155Z,69.30
2019-01-25T06:22:23.040Z,65.50
2019-01-25T06:23:22.992Z,69.10
2019-01-25T06:24:23.060Z,68.80
2019-01-25T06:25:22.932Z,70.80
2019-01-25T06:26:22.970Z,69.40
2019-01-25T06:27:22.871Z,67.60
2019-01-25T06:28:22.879Z,69.90
2019-01-25T06:29:22.800Z,68.90
2019-01-25T06:30:22.789Z,70.10
2019-01-25T06:31:22.728Z,69.50
2019-01-25T06:32:22.804Z,69.90
2019-01-25T06:33:22.672Z,71.20
2019-01-25T06:34:22.632Z,69.20
2019-01-25T06:35:22.611Z,71.30
2019-01-25T06:36:22.632Z,71.00
2019-01-25T06:37:22.536Z,68.50
2019-01-25T06:38:22.543Z,72.10
2019-01-25T06:39:22.461Z,69.00
2019-01-25T06:40:22.432Z,69.20
2019-01-25T06:41:22.454Z,70.10
2019-01-25T06:42:22.372Z,69.10
2019-01-25T06:43:22.361Z,69.80
2019-01-25T06:44:22.300Z,66.40
2019-01-25T06:45:22.260Z,69.60
2019-01-25T06:46:22.230Z,67.50
2019-01-25T06:47:22.279Z,69.70
2019-01-25T06:48:22.172Z,67.10
2019-01-25T06:49:22.194Z,69.70
2019-01-25T06:50:22.099Z,68.30
2019-01-25T06:51:22.069Z,70.80
2019-01-25T06:52:22.109Z,68.80
2019-01-25T06:53:22.001Z,71.90
2019-01-25T06:54:22.021Z,68.60
2019-01-25T06:55:21.952Z,72.20
2019-01-25T06:56:21.899Z,70.70
2019-01-25T06:57:21.869Z,71.10
2019-01-25T06:58:21.941Z,70.00
2019-01-25T06:59:21.801Z,72.20
2019-01-25T07:00:21.854Z,69.60
2019-01-25T07:01:21.738Z,72.10
2019-01-25T07:02:21.699Z,69.60
2019-01-25T07:03:21.670Z,75.70
2019-01-25T07:04:21.681Z,69.50
2019-01-25T07:05:21.609Z,70.40
2019-01-25T07:06:21.590Z,70.00
2019-01-25T07:07:21.551Z,74.10
2019-01-25T07:08:21.599Z,70.70
2019-01-25T07:09:21.470Z,71.30
2019-01-25T07:10:21.508Z,67.80
2019-01-25T07:11:21.409Z,69.30
2019-01-25T07:12:22.453Z,66.50
2019-01-25T07:13:21.437Z,67.20
2019-01-25T07:14:21.312Z,65.10
2019-01-25T07:15:21.342Z,66.90
2019-01-25T07:16:21.238Z,66.40
2019-01-25T07:17:21.239Z,65.30
2019-01-25T07:18:21.182Z,65.80
2019-01-25T07:19:21.144Z,63.80
2019-01-25T07:20:21.170Z,67.40
2019-01-25T07:21:21.079Z,64.90
2019-01-25T07:22:21.072Z,64.50
2019-01-25T07:23:21.019Z,66.10
2019-01-25T07:24:21.001Z,64.20
2019-01-25T07:25:20.949Z,67.50
2019-01-25T07:26:21.020Z,65.00
2019-01-25T07:27:20.878Z,64.80
2019-01-25T07:28:20.901Z,66.40
2019-01-25T07:29:20.810Z,65.00
2019-01-25T07:30:20.791Z,65.70
2019-01-25T07:31:20.820Z,65.40
2019-01-25T07:32:20.724Z,66.50
2019-01-25T07:33:20.793Z,65.60
2019-01-25T07:34:20.673Z,65.60
2019-01-25T07:35:20.611Z,63.80
2019-01-25T07:36:20.580Z,64.70
2019-01-25T07:37:20.653Z,64.90
2019-01-25T07:38:20.522Z,69.20
2019-01-25T07:39:20.561Z,66.40
2019-01-25T07:40:20.475Z,68.20
2019-01-25T07:41:20.437Z,65.40
2019-01-25T07:42:20.492Z,64.70
2019-01-25T07:43:20.353Z,64.50
2019-01-25T07:44:20.671Z,64.60
2019-01-25T07:45:20.291Z,63.70
2019-01-25T07:46:20.252Z,65.70
2019-01-25T07:47:20.257Z,61.00
2019-01-25T07:48:20.251Z,63.90
2019-01-25T07:49:20.151Z,62.40
2019-01-25T07:50:20.224Z,62.90
2019-01-25T07:51:20.098Z,63.50
2019-01-25T07:52:20.129Z,64.50
2019-01-25T07:53:22.135Z,62.80
2019-01-25T07:54:20.070Z,64.90
2019-01-25T07:55:19.971Z,64.20
2019-01-25T07:56:19.951Z,66.00
2019-01-25T07:57:19.960Z,89.50
2019-01-25T07:58:19.862Z,64.30
2019-01-25T07:59:19.914Z,63.60
2019-01-25T08:00:19.781Z,64.90
2019-01-25T08:01:19.791Z,64.20
2019-01-25T08:02:19.791Z,65.50
2019-01-25T08:03:19.721Z,64.10
2019-01-25T08:04:19.700Z,64.20
2019-01-25T08:05:19.638Z,66.80
2019-01-25T08:06:19.617Z,63.90
2019-01-25T08:07:19.572Z,67.00
2019-01-25T08:08:19.532Z,66.40
2019-01-25T08:09:19.520Z,64.40
2019-01-25T08:10:19.451Z,67.60
2019-01-25T08:11:19.549Z,66.30
2019-01-25T08:12:19.421Z,67.00
2019-01-25T08:13:19.358Z,67.20
2019-01-25T08:14:19.351Z,64.90
2019-01-25T08:15:19.442Z,66.60
2019-01-25T08:16:19.287Z,63.80
2019-01-25T08:17:19.269Z,65.00
2019-01-25T08:18:19.194Z,63.00
2019-01-25T08:19:19.174Z,63.40
2019-01-25T08:20:19.195Z,65.90
2019-01-25T08:21:19.091Z,62.40
2019-01-25T08:22:19.092Z,64.30
2019-01-25T08:23:19.048Z,63.10
2019-01-25T08:24:19.001Z,65.70
2019-01-25T08:25:19.009Z,62.80
2019-01-25T08:26:18.931Z,64.30
2019-01-25T08:27:18.941Z,64.10
2019-01-25T08:28:18.886Z,64.20
2019-01-25T08:29:18.831Z,63.90
2019-01-25T08:30:18.801Z,64.90
2019-01-25T08:31:18.860Z,66.50
2019-01-25T08:32:18.731Z,63.80
2019-01-25T08:33:18.750Z,65.90
2019-01-25T08:34:18.671Z,64.90
2019-01-25T08:35:18.633Z,65.30
2019-01-25T08:36:18.691Z,65.10
2019-01-25T08:37:18.582Z,67.60
2019-01-25T08:38:18.605Z,68.50
2019-01-25T08:39:18.552Z,66.80
2019-01-25T08:40:18.485Z,67.50
2019-01-25T08:41:18.462Z,68.40
2019-01-25T08:42:18.547Z,69.40
2019-01-25T08:43:18.380Z,65.40
2019-01-25T08:44:18.412Z,65.80
2019-01-25T08:45:26.364Z,66.70
2019-01-25T08:47:22.821Z,69.00
2019-01-25T08:48:23.042Z,67.50
2019-01-25T08:50:26.758Z,71.60
2019-01-25T08:51:26.625Z,68.10
2019-01-25T08:53:30.570Z,69.50
2019-01-25T08:54:30.634Z,69.40
2019-01-25T08:56:34.708Z,70.30
2019-01-25T08:57:34.442Z,72.00
2019-01-25T08:59:38.390Z,73.90
2019-01-25T09:00:38.350Z,72.80
2019-01-25T09:02:42.371Z,72.40
2019-01-25T09:03:42.261Z,73.80
2019-01-25T09:05:46.281Z,76.90
2019-01-25T09:06:46.170Z,77.70
2019-01-25T09:08:50.131Z,76.80
2019-01-25T09:09:50.159Z,74.10
2019-01-25T09:11:43.065Z,73.30
2019-01-25T09:12:43.014Z,71.30
2019-01-25T09:14:47.982Z,74.10
2019-01-25T09:15:47.872Z,75.70
2019-01-25T09:17:51.904Z,72.40
2019-01-25T09:18:51.802Z,72.20
2019-01-25T09:20:55.815Z,74.50
2019-01-25T09:21:55.702Z,72.50
2019-01-25T09:24:00.747Z,73.00
2019-01-25T09:25:00.653Z,69.50
2019-01-25T09:27:04.661Z,69.50
2019-01-25T09:28:04.550Z,70.30
2019-01-25T09:30:08.572Z,69.30
2019-01-25T09:31:08.460Z,70.00
2019-01-25T09:33:12.481Z,67.80
2019-01-25T09:34:12.369Z,65.60
2019-01-25T09:35:12.352Z,67.40
2019-01-25T09:36:12.313Z,66.20
2019-01-25T09:37:12.371Z,65.40
2019-01-25T09:38:12.240Z,65.80
2019-01-25T09:39:12.281Z,64.00
2019-01-25T09:40:12.184Z,62.30
2019-01-25T09:41:12.190Z,60.50
2019-01-25T09:42:12.111Z,62.00
2019-01-25T09:43:12.099Z,58.30
2019-01-25T09:44:12.052Z,56.90
2019-01-25T09:45:12.010Z,56.00
2019-01-25T09:46:11.982Z,55.50
2019-01-25T09:47:12.029Z,53.80
2019-01-25T09:48:11.910Z,55.30
2019-01-25T09:49:11.952Z,55.10
2019-01-25T09:50:11.852Z,53.80
2019-01-25T09:51:11.815Z,52.50
2019-01-25T09:52:11.861Z,53.10
2019-01-25T09:53:11.752Z,51.60
2019-01-25T09:54:11.770Z,52.20
2019-01-25T09:55:11.691Z,50.80
2019-01-25T09:56:11.655Z,49.90
2019-01-25T09:57:11.619Z,50.60
2019-01-25T09:58:11.700Z,49.00
2019-01-25T09:59:11.563Z,47.20
2019-01-25T10:00:11.610Z,46.30
2019-01-25T10:01:11.493Z,45.60
2019-01-25T10:02:11.531Z,47.50
2019-01-25T10:03:11.436Z,47.90
2019-01-25T10:04:11.431Z,46.50
2019-01-25T10:05:11.362Z,48.70
2019-01-25T10:06:11.340Z,47.30
2019-01-25T10:07:11.349Z,46.30
2019-01-25T10:08:11.275Z,46.40
2019-01-25T10:09:11.259Z,46.40
2019-01-25T10:10:11.190Z,45.80
2019-01-25T10:11:11.172Z,46.60
2019-01-25T10:12:11.142Z,47.90
2019-01-25T10:13:11.203Z,45.80
2019-01-25T10:14:11.061Z,44.90
2019-01-25T10:15:11.110Z,44.30
2019-01-25T10:16:11.012Z,44.70
2019-01-25T10:17:11.011Z,44.70
2019-01-25T10:18:10.941Z,43.20
2019-01-25T10:19:10.921Z,43.20
2019-01-25T10:20:10.870Z,44.50
2019-01-25T10:21:10.944Z,45.00
2019-01-25T10:22:10.811Z,44.20
2019-01-25T10:23:10.771Z,42.30
2019-01-25T10:24:10.743Z,41.40
2019-01-25T10:25:10.760Z,42.00
2019-01-25T10:26:10.672Z,43.10
2019-01-25T10:27:10.670Z,41.50
2019-01-25T10:28:10.610Z,41.10
2019-01-25T10:29:10.591Z,39.50
2019-01-25T10:30:10.591Z,38.30
2019-01-25T10:31:10.511Z,37.40
2019-01-25T10:32:10.501Z,35.30
2019-01-25T10:33:10.451Z,34.80
2019-01-25T10:34:10.410Z,35.30
2019-01-25T10:35:10.382Z,35.00
2019-01-25T10:36:10.443Z,35.80
2019-01-25T10:37:10.320Z,36.90
2019-01-25T10:38:10.340Z,34.80
2019-01-25T10:39:10.253Z,34.40
2019-01-25T10:40:10.264Z,35.00
2019-01-25T10:41:10.191Z,33.90
2019-01-25T10:42:10.284Z,34.40
2019-01-25T10:43:10.131Z,34.00
2019-01-25T10:44:10.181Z,33.70
2019-01-25T10:45:10.081Z,32.90
2019-01-25T10:46:10.032Z,33.50
2019-01-25T10:47:10.102Z,33.30
2019-01-25T10:48:09.962Z,32.40
2019-01-25T10:49:10.012Z,32.60
2019-01-25T10:50:09.900Z,31.30
2019-01-25T10:51:09.920Z,31.90
2019-01-25T10:52:09.841Z,31.90
2019-01-25T10:53:09.847Z,31.40
2019-01-25T10:54:09.776Z,30.80
2019-01-25T10:55:09.844Z,29.90
2019-01-25T10:56:09.713Z,30.90
2019-01-25T10:57:09.763Z,30.00
2019-01-25T10:58:09.640Z,30.20
2019-01-25T10:59:09.681Z,30.40
2019-01-25T11:00:09.571Z,29.90
2019-01-25T11:01:09.543Z,29.90
2019-01-25T11:02:09.511Z,30.20
2019-01-25T11:03:09.592Z,29.60
2019-01-25T11:04:11.600Z,29.90
2019-01-25T11:05:09.512Z,30.70
2019-01-25T11:06:09.381Z,30.10
2019-01-25T11:07:09.349Z,30.50
2019-01-25T11:08:09.428Z,31.00
2019-01-25T11:09:09.291Z,30.80
2019-01-25T11:10:09.342Z,30.40
2019-01-25T11:11:09.232Z,30.80
2019-01-25T11:12:09.189Z,30.10
2019-01-25T11:13:09.161Z,29.60
2019-01-25T11:14:09.161Z,28.20
2019-01-25T11:15:09.102Z,27.80
2019-01-25T11:16:11.900Z,28.80
2019-01-25T11:17:09.033Z,29.50
2019-01-25T11:18:09.093Z,29.70
2019-01-25T11:19:08.961Z,30.70
2019-01-25T11:20:09.002Z,31.00
2019-01-25T11:21:08.909Z,28.80
2019-01-25T11:22:08.910Z,28.20
2019-01-25T11:23:08.920Z,28.90
2019-01-25T11:24:08.812Z,28.60
2019-01-25T11:25:08.835Z,28.00
2019-01-25T11:26:08.740Z,28.60
2019-01-25T11:27:08.741Z,28.90
2019-01-25T11:28:08.682Z,29.00
2019-01-25T11:29:08.758Z,29.30
2019-01-25T11:30:08.631Z,28.90
2019-01-25T11:31:08.672Z,28.20
2019-01-25T11:32:08.548Z,29.90
2019-01-25T11:33:08.581Z,28.40
2019-01-25T11:34:08.581Z,28.80
2019-01-25T11:35:08.463Z,30.10
2019-01-25T11:36:08.491Z,30.70
2019-01-25T11:37:08.391Z,30.10
2019-01-25T11:38:08.411Z,30.00
2019-01-25T11:39:08.329Z,28.50
2019-01-25T11:40:08.321Z,28.70
2019-01-25T11:41:08.261Z,28.50
2019-01-25T11:42:08.330Z,28.70
2019-01-25T11:43:09.155Z,29.00
2019-01-25T11:44:08.240Z,28.60
2019-01-25T11:45:08.256Z,29.30
2019-01-25T11:46:08.103Z,28.20
2019-01-25T11:47:08.162Z,28.10
2019-01-25T11:48:08.041Z,29.00
2019-01-25T11:49:08.101Z,28.40
2019-01-25T11:50:07.983Z,28.20
2019-01-25T11:51:07.952Z,28.50
2019-01-25T11:52:08.001Z,28.90
2019-01-25T11:53:07.882Z,27.40
2019-01-25T11:54:07.910Z,27.60
2019-01-25T11:55:07.823Z,28.80
2019-01-25T11:56:07.784Z,26.60
2019-01-25T11:57:07.751Z,27.80
2019-01-25T11:58:07.835Z,26.80
2019-01-25T11:59:07.691Z,26.00
2019-01-25T12:00:07.743Z,25.70
2019-01-25T12:01:07.631Z,24.50
2019-01-25T12:02:07.602Z,24.80
2019-01-25T12:03:07.663Z,24.50
2019-01-25T12:04:07.532Z,22.70
2019-01-25T12:05:07.576Z,22.10
2019-01-25T12:06:07.484Z,21.80
2019-01-25T12:07:07.442Z,21.60
2019-01-25T12:08:07.411Z,21.30
2019-01-25T12:09:07.411Z,19.80
2019-01-25T12:10:07.353Z,21.00
2019-01-25T12:11:07.413Z,20.60
2019-01-25T12:12:07.283Z,20.60
2019-01-25T12:13:07.250Z,20.70
2019-01-25T12:14:07.231Z,21.10
2019-01-25T12:15:07.184Z,20.70
2019-01-25T12:16:07.247Z,20.60
2019-01-25T12:17:07.121Z,19.80
2019-01-25T12:18:07.092Z,21.00
2019-01-25T12:19:07.061Z,20.70
2019-01-25T12:20:07.063Z,19.70
2019-01-25T12:21:06.990Z,20.90
2019-01-25T12:22:06.992Z,20.20
2019-01-25T12:23:06.934Z,20.90
2019-01-25T12:24:06.899Z,20.30
2019-01-25T12:25:06.891Z,21.20
2019-01-25T12:26:06.833Z,21.20
2019-01-25T12:27:06.910Z,20.80
2019-01-25T12:28:06.770Z,21.00
2019-01-25T12:29:06.740Z,20.50
2019-01-25T12:30:06.713Z,20.50
2019-01-25T12:31:06.733Z,20.40
2019-01-25T12:32:06.652Z,21.10
2019-01-25T12:33:06.643Z,20.60
2019-01-25T12:34:06.582Z,20.30
2019-01-25T12:35:07.536Z,21.00
2019-01-25T12:36:07.591Z,21.50
2019-01-25T12:37:06.491Z,21.00
2019-01-25T12:38:06.471Z,20.60
2019-01-25T12:39:06.431Z,20.70
2019-01-25T12:40:06.528Z,20.00
2019-01-25T12:41:06.362Z,21.20
2019-01-25T12:42:06.412Z,20.10
2019-01-25T12:43:06.302Z,20.80
2019-01-25T12:44:06.359Z,21.50
2019-01-25T12:45:06.241Z,19.30
2019-01-25T12:46:06.209Z,20.50
2019-01-25T12:47:06.182Z,22.10
2019-01-25T12:48:06.241Z,20.90
2019-01-25T12:49:06.111Z,20.30
2019-01-25T12:50:06.150Z,21.40
2019-01-25T12:51:06.054Z,21.80
2019-01-25T12:52:08.265Z,20.30
2019-01-25T12:53:05.989Z,20.50
2019-01-25T12:54:05.970Z,21.00
2019-01-25T12:55:05.932Z,21.60
2019-01-25T12:56:05.990Z,21.60
2019-01-25T12:57:05.881Z,20.00
2019-01-25T12:58:05.900Z,20.20
2019-01-25T12:59:05.801Z,19.40
2019-01-25T13:00:05.811Z,20.80
2019-01-25T13:01:06.218Z,20.70
2019-01-25T13:02:05.724Z,20.70
2019-01-25T13:03:05.680Z,19.80
2019-01-25T13:04:05.743Z,20.40
2019-01-25T13:05:05.625Z,20.60
2019-01-25T13:06:05.650Z,20.50
2019-01-25T13:07:05.570Z,21.00
2019-01-25T13:08:05.531Z,21.00
2019-01-25T13:09:05.490Z,20.80
2019-01-25T13:10:05.571Z,22.20
2019-01-25T13:11:05.444Z,21.10
2019-01-25T13:12:05.489Z,21.30
2019-01-25T13:13:05.369Z,21.90
2019-01-25T13:14:05.411Z,20.90
2019-01-25T13:15:05.314Z,20.40
2019-01-25T13:16:05.321Z,21.10
2019-01-25T13:17:05.249Z,21.20
2019-01-25T13:18:05.322Z,21.70
2019-01-25T13:19:05.229Z,21.60
2019-01-25T13:20:05.162Z,21.70
2019-01-25T13:21:05.151Z,21.90
2019-01-25T13:22:05.092Z,21.10
2019-01-25T13:23:05.160Z,21.90
2019-01-25T13:24:05.041Z,22.60
2019-01-25T13:25:05.000Z,22.00
2019-01-25T13:26:05.069Z,22.20
2019-01-25T13:27:04.938Z,22.30
2019-01-25T13:28:04.978Z,22.30
2019-01-25T13:29:04.873Z,22.30
2019-01-25T13:30:04.841Z,21.80
2019-01-25T13:31:04.812Z,22.20
2019-01-25T13:32:04.811Z,22.90
2019-01-25T13:33:04.750Z,21.90
2019-01-25T13:34:04.831Z,21.90
2019-01-25T13:35:04.691Z,22.40
2019-01-25T13:36:04.660Z,24.10
2019-01-25T13:37:04.642Z,23.00
2019-01-25T13:38:04.589Z,22.50
2019-01-25T13:39:06.140Z,22.30
2019-01-25T13:40:04.533Z,22.40
2019-01-25T13:41:04.511Z,21.80
2019-01-25T13:42:04.471Z,22.10
2019-01-25T13:43:04.480Z,21.80
2019-01-25T13:44:04.410Z,21.80
2019-01-25T13:45:04.490Z,22.60
2019-01-25T13:46:04.350Z,22.10
2019-01-25T13:47:04.319Z,22.40
2019-01-25T13:48:04.311Z,21.90
2019-01-25T13:49:04.251Z,22.10
2019-01-25T13:50:05.510Z,21.80
2019-01-25T13:51:04.189Z,21.20
2019-01-25T13:52:04.161Z,21.70
2019-01-25T13:53:04.131Z,21.60
2019-01-25T13:54:04.151Z,21.60
2019-01-25T13:55:04.070Z,22.00
2019-01-25T13:56:04.051Z,22.10
2019-01-25T13:57:04.000Z,22.30
2019-01-25T13:58:03.969Z,21.20
2019-01-25T13:59:03.970Z,21.80
2019-01-25T14:00:03.912Z,21.50
2019-01-25T14:01:03.991Z,22.50
2019-01-25T14:02:03.850Z,20.80
2019-01-25T14:03:03.815Z,21.90
2019-01-25T14:04:03.782Z,21.80
2019-01-25T14:05:03.821Z,21.60
2019-01-25T14:06:03.723Z,21.20
2019-01-25T14:07:03.722Z,22.10
2019-01-25T14:08:03.666Z,21.90
2019-01-25T14:09:03.620Z,21.60
2019-01-25T14:10:03.641Z,21.30
2019-01-25T14:11:03.570Z,21.90
2019-01-25T14:12:03.549Z,21.60
2019-01-25T14:13:03.502Z,21.60
2019-01-25T14:14:03.570Z,21.10
2019-01-25T14:15:03.439Z,20.90
2019-01-25T14:16:03.482Z,21.10
2019-01-25T14:17:03.370Z,21.40
2019-01-25T14:18:03.390Z,21.30
2019-01-25T14:19:03.312Z,20.60
2019-01-25T14:20:03.291Z,21.50
2019-01-25T14:21:03.317Z,21.20
2019-01-25T14:22:03.221Z,21.30
2019-01-25T14:23:03.222Z,20.80
2019-01-25T14:24:03.161Z,21.00
2019-01-25T14:25:03.230Z,20.60
2019-01-25T14:26:03.092Z,21.60
2019-01-25T14:27:03.150Z,21.40
2019-01-25T14:28:03.034Z,20.90
2019-01-25T14:29:03.064Z,20.80
2019-01-25T14:30:02.973Z,20.90
2019-01-25T14:31:02.941Z,21.30
2019-01-25T14:32:02.926Z,20.70
2019-01-25T14:33:02.992Z,21.60
2019-01-25T14:34:02.842Z,21.60
2019-01-25T14:35:02.900Z,20.20
2019-01-25T14:36:02.785Z,21.00
2019-01-25T14:37:02.751Z,20.60
2019-01-25T14:38:02.811Z,20.90
2019-01-25T14:39:02.691Z,20.60
2019-01-25T14:40:02.730Z,20.10
2019-01-25T14:41:02.624Z,21.10
2019-01-25T14:42:02.601Z,20.10
2019-01-25T14:43:03.002Z,21.70
2019-01-25T14:44:02.545Z,20.60
2019-01-25T14:45:02.571Z,21.00
2019-01-25T14:46:02.459Z,21.10
2019-01-25T14:47:02.471Z,21.40
2019-01-25T14:48:02.479Z,20.90
2019-01-25T14:49:09.901Z,20.70
2019-01-25T14:50:55.491Z,20.60
2019-01-25T14:51:55.370Z,21.00
2019-01-25T14:53:59.320Z,21.90
2019-01-25T14:54:59.360Z,21.20
2019-01-25T14:57:03.309Z,20.80
2019-01-25T14:58:03.211Z,20.10
2019-01-25T15:00:07.818Z,20.60
2019-01-25T15:01:07.201Z,21.40
2019-01-25T15:03:11.130Z,21.60
2019-01-25T15:04:11.018Z,21.10
2019-01-25T15:06:15.040Z,21.80
2019-01-25T15:07:14.933Z,20.80
2019-01-25T15:09:18.951Z,20.40
2019-01-25T15:10:18.850Z,20.80
2019-01-25T15:12:22.858Z,21.20
2019-01-25T15:13:22.760Z,20.70
2019-01-25T15:15:26.982Z,21.70
2019-01-25T15:16:26.851Z,20.50
2019-01-25T15:18:30.912Z,21.00
2019-01-25T15:19:30.783Z,21.70
2019-01-25T15:21:41.721Z,20.90